sensor_id;sensor_type;location;lat;lon;timestamp;P1;durP1;ratioP1;P2;durP2;ratioP2
28762;SDS011;15918;51.270;6.522;2022-09-25T00:01:24;9.30;;;6.10;;
28762;SDS011;15918;51.270;6.522;2022-09-25T00:03:50;7.55;;;5.78;;
28762;SDS011;15918;51.270;6.522;2022-09-25T00:06:18;8.13;;;6.40;;
28762;SDS011;15918;51.270;6.522;2022-09-25T00:08:45;9.82;;;6.22;;
28762;SDS011;15918;51.270;6.522;2022-09-25T00:11:13;10.55;;;6.80;;
28762;SDS011;15918;51.270;6.522;2022-09-25T00:13:43;9.48;;;6.40;;
28762;SDS011;15918;51.270;6.522;2022-09-25T00:16:11;9.20;;;5.85;;
28762;SDS011;15918;51.270;6.522;2022-09-25T00:18:39;11.75;;;7.30;;
28762;SDS011;15918;51.270;6.522;2022-09-25T00:21:23;11.63;;;6.60;;
28762;SDS011;15918;51.270;6.522;2022-09-25T00:23:53;10.38;;;5.50;;
28762;SDS011;15918;51.270;6.522;2022-09-25T00:26:18;9.65;;;6.43;;
28762;SDS011;15918;51.270;6.522;2022-09-25T00:28:44;12.35;;;5.80;;
28762;SDS011;15918;51.270;6.522;2022-09-25T00:31:10;13.13;;;5.03;;
28762;SDS011;15918;51.270;6.522;2022-09-25T00:33:42;7.38;;;4.97;;
28762;SDS011;15918;51.270;6.522;2022-09-25T00:36:08;7.47;;;5.03;;
28762;SDS011;15918;51.270;6.522;2022-09-25T00:38:35;8.23;;;4.75;;
28762;SDS011;15918;51.270;6.522;2022-09-25T00:41:01;11.63;;;4.18;;
28762;SDS011;15918;51.270;6.522;2022-09-25T00:43:32;6.28;;;4.22;;
28762;SDS011;15918;51.270;6.522;2022-09-25T00:46:02;10.52;;;4.95;;
28762;SDS011;15918;51.270;6.522;2022-09-25T00:49:00;7.88;;;3.47;;
28762;SDS011;15918;51.270;6.522;2022-09-25T00:51:57;8.77;;;3.70;;
28762;SDS011;15918;51.270;6.522;2022-09-25T00:54:32;10.48;;;4.13;;
28762;SDS011;15918;51.270;6.522;2022-09-25T00:57:03;6.35;;;3.40;;
28762;SDS011;15918;51.270;6.522;2022-09-25T00:59:32;7.00;;;3.35;;
28762;SDS011;15918;51.270;6.522;2022-09-25T01:02:04;5.57;;;2.83;;
28762;SDS011;15918;51.270;6.522;2022-09-25T01:04:31;8.40;;;3.20;;
28762;SDS011;15918;51.270;6.522;2022-09-25T01:07:01;9.35;;;3.67;;
28762;SDS011;15918;51.270;6.522;2022-09-25T01:09:26;7.85;;;2.90;;
28762;SDS011;15918;51.270;6.522;2022-09-25T01:11:52;13.90;;;3.15;;
28762;SDS011;15918;51.270;6.522;2022-09-25T01:14:18;8.32;;;2.97;;
28762;SDS011;15918;51.270;6.522;2022-09-25T01:16:46;9.60;;;3.28;;
28762;SDS011;15918;51.270;6.522;2022-09-25T01:19:33;9.02;;;3.10;;
28762;SDS011;15918;51.270;6.522;2022-09-25T01:22:35;9.75;;;2.83;;
28762;SDS011;15918;51.270;6.522;2022-09-25T01:33:54;7.95;;;2.85;;
28762;SDS011;15918;51.270;6.522;2022-09-25T01:36:26;8.23;;;2.72;;
28762;SDS011;15918;51.270;6.522;2022-09-25T01:39:42;9.98;;;2.97;;
28762;SDS011;15918;51.270;6.522;2022-09-25T01:41:52;8.30;;;2.78;;
28762;SDS011;15918;51.270;6.522;2022-09-25T01:46:52;10.30;;;3.08;;
28762;SDS011;15918;51.270;6.522;2022-09-25T01:49:29;6.65;;;3.00;;
28762;SDS011;15918;51.270;6.522;2022-09-25T01:51:58;7.43;;;2.45;;
28762;SDS011;15918;51.270;6.522;2022-09-25T01:54:28;5.28;;;2.50;;
28762;SDS011;15918;51.270;6.522;2022-09-25T01:57:09;10.60;;;2.50;;
28762;SDS011;15918;51.270;6.522;2022-09-25T01:59:46;9.02;;;2.63;;
28762;SDS011;15918;51.270;6.522;2022-09-25T02:02:20;10.90;;;2.97;;
28762;SDS011;15918;51.270;6.522;2022-09-25T02:04:53;9.45;;;2.70;;
28762;SDS011;15918;51.270;6.522;2022-09-25T02:07:29;11.77;;;3.58;;
28762;SDS011;15918;51.270;6.522;2022-09-25T02:10:11;11.13;;;2.60;;
28762;SDS011;15918;51.270;6.522;2022-09-25T02:12:44;7.57;;;2.88;;
28762;SDS011;15918;51.270;6.522;2022-09-25T02:15:24;10.60;;;2.83;;
28762;SDS011;15918;51.270;6.522;2022-09-25T02:17:57;9.40;;;2.25;;
28762;SDS011;15918;51.270;6.522;2022-09-25T02:20:45;10.45;;;2.95;;
28762;SDS011;15918;51.270;6.522;2022-09-25T02:25:52;12.20;;;3.20;;
28762;SDS011;15918;51.270;6.522;2022-09-25T02:28:30;8.70;;;2.60;;
28762;SDS011;15918;51.270;6.522;2022-09-25T02:30:56;9.32;;;2.97;;
28762;SDS011;15918;51.270;6.522;2022-09-25T02:33:24;9.55;;;3.17;;
28762;SDS011;15918;51.270;6.522;2022-09-25T02:35:51;11.60;;;2.90;;
28762;SDS011;15918;51.270;6.522;2022-09-25T02:38:17;10.38;;;2.65;;
28762;SDS011;15918;51.270;6.522;2022-09-25T02:43:43;7.28;;;2.95;;
28762;SDS011;15918;51.270;6.522;2022-09-25T02:46:27;10.02;;;3.25;;
28762;SDS011;15918;51.270;6.522;2022-09-25T02:52:09;7.75;;;2.80;;
28762;SDS011;15918;51.270;6.522;2022-09-25T02:54:31;8.38;;;3.08;;
28762;SDS011;15918;51.270;6.522;2022-09-25T02:57:22;11.80;;;2.75;;
28762;SDS011;15918;51.270;6.522;2022-09-25T03:00:05;8.05;;;2.65;;
28762;SDS011;15918;51.270;6.522;2022-09-25T03:02:32;9.27;;;3.30;;
28762;SDS011;15918;51.270;6.522;2022-09-25T03:05:00;8.02;;;2.42;;
28762;SDS011;15918;51.270;6.522;2022-09-25T03:07:27;6.32;;;2.70;;
28762;SDS011;15918;51.270;6.522;2022-09-25T03:09:53;6.25;;;2.67;;
28762;SDS011;15918;51.270;6.522;2022-09-25T03:12:21;6.50;;;2.67;;
28762;SDS011;15918;51.270;6.522;2022-09-25T03:14:47;7.85;;;3.00;;
28762;SDS011;15918;51.270;6.522;2022-09-25T03:17:13;10.52;;;2.90;;
28762;SDS011;15918;51.270;6.522;2022-09-25T03:19:41;11.05;;;3.30;;
28762;SDS011;15918;51.270;6.522;2022-09-25T03:22:07;8.30;;;2.70;;
28762;SDS011;15918;51.270;6.522;2022-09-25T03:24:32;9.18;;;3.00;;
28762;SDS011;15918;51.270;6.522;2022-09-25T03:26:58;7.95;;;2.85;;
28762;SDS011;15918;51.270;6.522;2022-09-25T03:29:23;7.80;;;2.58;;
28762;SDS011;15918;51.270;6.522;2022-09-25T03:31:49;7.90;;;2.75;;
28762;SDS011;15918;51.270;6.522;2022-09-25T03:34:16;10.98;;;3.25;;
28762;SDS011;15918;51.270;6.522;2022-09-25T03:36:43;9.35;;;3.25;;
28762;SDS011;15918;51.270;6.522;2022-09-25T03:39:11;11.80;;;2.83;;
28762;SDS011;15918;51.270;6.522;2022-09-25T03:41:39;9.55;;;2.50;;
28762;SDS011;15918;51.270;6.522;2022-09-25T03:44:04;12.75;;;3.15;;
28762;SDS011;15918;51.270;6.522;2022-09-25T03:46:31;7.93;;;2.50;;
28762;SDS011;15918;51.270;6.522;2022-09-25T03:48:58;8.13;;;2.78;;
28762;SDS011;15918;51.270;6.522;2022-09-25T03:51:24;10.52;;;2.85;;
28762;SDS011;15918;51.270;6.522;2022-09-25T03:53:51;11.15;;;2.70;;
28762;SDS011;15918;51.270;6.522;2022-09-25T03:56:18;6.80;;;2.55;;
28762;SDS011;15918;51.270;6.522;2022-09-25T03:58:45;9.05;;;2.97;;
28762;SDS011;15918;51.270;6.522;2022-09-25T04:01:12;13.80;;;3.25;;
28762;SDS011;15918;51.270;6.522;2022-09-25T04:03:39;7.57;;;2.55;;
28762;SDS011;15918;51.270;6.522;2022-09-25T04:06:11;7.15;;;2.40;;
28762;SDS011;15918;51.270;6.522;2022-09-25T04:08:38;13.10;;;2.75;;
28762;SDS011;15918;51.270;6.522;2022-09-25T04:11:04;7.03;;;2.65;;
28762;SDS011;15918;51.270;6.522;2022-09-25T04:13:31;9.68;;;2.85;;
28762;SDS011;15918;51.270;6.522;2022-09-25T04:16:00;9.30;;;2.85;;
28762;SDS011;15918;51.270;6.522;2022-09-25T04:18:27;10.98;;;2.45;;
28762;SDS011;15918;51.270;6.522;2022-09-25T04:20:59;10.85;;;2.88;;
28762;SDS011;15918;51.270;6.522;2022-09-25T04:23:25;8.35;;;2.58;;
28762;SDS011;15918;51.270;6.522;2022-09-25T04:25:51;6.75;;;2.65;;
28762;SDS011;15918;51.270;6.522;2022-09-25T04:28:18;7.38;;;2.60;;
28762;SDS011;15918;51.270;6.522;2022-09-25T04:30:44;7.18;;;2.20;;
28762;SDS011;15918;51.270;6.522;2022-09-25T04:33:09;6.60;;;1.92;;
28762;SDS011;15918;51.270;6.522;2022-09-25T04:35:53;5.53;;;1.90;;
28762;SDS011;15918;51.270;6.522;2022-09-25T04:38:20;8.65;;;2.33;;
28762;SDS011;15918;51.270;6.522;2022-09-25T04:40:45;7.97;;;2.13;;
28762;SDS011;15918;51.270;6.522;2022-09-25T04:43:11;5.63;;;2.35;;
28762;SDS011;15918;51.270;6.522;2022-09-25T04:45:37;8.23;;;2.92;;
28762;SDS011;15918;51.270;6.522;2022-09-25T04:48:03;8.18;;;2.42;;
28762;SDS011;15918;51.270;6.522;2022-09-25T04:50:30;6.80;;;2.08;;
28762;SDS011;15918;51.270;6.522;2022-09-25T04:52:56;7.60;;;2.85;;
28762;SDS011;15918;51.270;6.522;2022-09-25T04:55:22;7.28;;;2.38;;
28762;SDS011;15918;51.270;6.522;2022-09-25T04:57:52;7.47;;;2.67;;
28762;SDS011;15918;51.270;6.522;2022-09-25T05:00:19;6.90;;;2.10;;
28762;SDS011;15918;51.270;6.522;2022-09-25T05:02:46;8.18;;;2.72;;
28762;SDS011;15918;51.270;6.522;2022-09-25T05:05:12;7.10;;;2.03;;
28762;SDS011;15918;51.270;6.522;2022-09-25T05:07:38;7.40;;;1.80;;
28762;SDS011;15918;51.270;6.522;2022-09-25T05:10:05;9.30;;;2.60;;
28762;SDS011;15918;51.270;6.522;2022-09-25T05:12:32;6.38;;;2.00;;
28762;SDS011;15918;51.270;6.522;2022-09-25T05:14:58;6.95;;;2.28;;
28762;SDS011;15918;51.270;6.522;2022-09-25T05:17:24;8.80;;;2.03;;
28762;SDS011;15918;51.270;6.522;2022-09-25T05:19:49;4.88;;;2.22;;
28762;SDS011;15918;51.270;6.522;2022-09-25T05:22:15;8.48;;;2.40;;
28762;SDS011;15918;51.270;6.522;2022-09-25T05:24:41;10.98;;;2.65;;
28762;SDS011;15918;51.270;6.522;2022-09-25T05:27:06;10.82;;;2.38;;
28762;SDS011;15918;51.270;6.522;2022-09-25T05:29:32;8.43;;;2.30;;
28762;SDS011;15918;51.270;6.522;2022-09-25T05:31:58;6.80;;;2.30;;
28762;SDS011;15918;51.270;6.522;2022-09-25T05:34:25;8.15;;;1.83;;
28762;SDS011;15918;51.270;6.522;2022-09-25T05:36:50;9.73;;;2.13;;
28762;SDS011;15918;51.270;6.522;2022-09-25T05:39:16;6.53;;;2.60;;
28762;SDS011;15918;51.270;6.522;2022-09-25T05:41:41;9.32;;;2.28;;
28762;SDS011;15918;51.270;6.522;2022-09-25T05:44:07;10.75;;;2.58;;
28762;SDS011;15918;51.270;6.522;2022-09-25T05:46:37;7.70;;;2.10;;
28762;SDS011;15918;51.270;6.522;2022-09-25T05:49:03;6.47;;;2.22;;
28762;SDS011;15918;51.270;6.522;2022-09-25T05:51:29;9.57;;;2.65;;
28762;SDS011;15918;51.270;6.522;2022-09-25T05:53:55;6.93;;;2.08;;
28762;SDS011;15918;51.270;6.522;2022-09-25T05:56:21;9.23;;;2.58;;
28762;SDS011;15918;51.270;6.522;2022-09-25T05:58:48;6.88;;;2.00;;
28762;SDS011;15918;51.270;6.522;2022-09-25T06:01:14;9.43;;;2.75;;
28762;SDS011;15918;51.270;6.522;2022-09-25T06:03:40;7.72;;;2.63;;
28762;SDS011;15918;51.270;6.522;2022-09-25T06:06:06;6.80;;;2.60;;
28762;SDS011;15918;51.270;6.522;2022-09-25T06:08:32;6.97;;;2.60;;
28762;SDS011;15918;51.270;6.522;2022-09-25T06:10:59;9.25;;;3.20;;
28762;SDS011;15918;51.270;6.522;2022-09-25T06:13:26;10.10;;;2.70;;
28762;SDS011;15918;51.270;6.522;2022-09-25T06:15:53;6.20;;;2.83;;
28762;SDS011;15918;51.270;6.522;2022-09-25T06:18:19;8.98;;;2.90;;
28762;SDS011;15918;51.270;6.522;2022-09-25T06:20:46;10.40;;;3.25;;
28762;SDS011;15918;51.270;6.522;2022-09-25T06:23:13;10.13;;;2.97;;
28762;SDS011;15918;51.270;6.522;2022-09-25T06:25:39;7.65;;;2.95;;
28762;SDS011;15918;51.270;6.522;2022-09-25T06:28:05;6.20;;;2.83;;
28762;SDS011;15918;51.270;6.522;2022-09-25T06:30:33;7.38;;;2.97;;
28762;SDS011;15918;51.270;6.522;2022-09-25T06:33:00;6.93;;;3.10;;
28762;SDS011;15918;51.270;6.522;2022-09-25T06:35:28;6.65;;;3.10;;
28762;SDS011;15918;51.270;6.522;2022-09-25T06:37:57;8.30;;;3.92;;
28762;SDS011;15918;51.270;6.522;2022-09-25T06:40:24;11.93;;;3.38;;
28762;SDS011;15918;51.270;6.522;2022-09-25T06:43:00;8.95;;;3.17;;
28762;SDS011;15918;51.270;6.522;2022-09-25T06:45:28;7.43;;;2.63;;
28762;SDS011;15918;51.270;6.522;2022-09-25T06:48:03;9.68;;;3.28;;
28762;SDS011;15918;51.270;6.522;2022-09-25T06:50:56;7.90;;;2.92;;
28762;SDS011;15918;51.270;6.522;2022-09-25T06:53:23;8.00;;;2.50;;
28762;SDS011;15918;51.270;6.522;2022-09-25T06:55:50;7.63;;;2.90;;
28762;SDS011;15918;51.270;6.522;2022-09-25T06:58:17;7.78;;;2.83;;
28762;SDS011;15918;51.270;6.522;2022-09-25T07:00:48;10.57;;;2.88;;
28762;SDS011;15918;51.270;6.522;2022-09-25T07:03:15;9.82;;;2.60;;
28762;SDS011;15918;51.270;6.522;2022-09-25T07:06:00;10.13;;;3.10;;
28762;SDS011;15918;51.270;6.522;2022-09-25T07:08:26;13.65;;;2.75;;
28762;SDS011;15918;51.270;6.522;2022-09-25T07:10:52;8.82;;;2.38;;
28762;SDS011;15918;51.270;6.522;2022-09-25T07:13:20;9.32;;;2.55;;
28762;SDS011;15918;51.270;6.522;2022-09-25T07:15:52;11.80;;;2.70;;
28762;SDS011;15918;51.270;6.522;2022-09-25T07:18:21;6.70;;;2.15;;
28762;SDS011;15918;51.270;6.522;2022-09-25T07:20:48;6.85;;;2.63;;
28762;SDS011;15918;51.270;6.522;2022-09-25T07:23:16;7.80;;;2.15;;
28762;SDS011;15918;51.270;6.522;2022-09-25T07:25:43;9.48;;;2.70;;
28762;SDS011;15918;51.270;6.522;2022-09-25T07:28:09;11.15;;;2.75;;
28762;SDS011;15918;51.270;6.522;2022-09-25T07:30:38;8.43;;;2.70;;
28762;SDS011;15918;51.270;6.522;2022-09-25T07:33:04;11.73;;;2.70;;
28762;SDS011;15918;51.270;6.522;2022-09-25T07:35:29;13.25;;;3.15;;
28762;SDS011;15918;51.270;6.522;2022-09-25T07:37:55;10.45;;;2.40;;
28762;SDS011;15918;51.270;6.522;2022-09-25T07:40:22;8.52;;;2.47;;
28762;SDS011;15918;51.270;6.522;2022-09-25T07:42:50;8.10;;;2.03;;
28762;SDS011;15918;51.270;6.522;2022-09-25T07:45:15;8.35;;;2.13;;
28762;SDS011;15918;51.270;6.522;2022-09-25T07:47:41;8.45;;;2.30;;
28762;SDS011;15918;51.270;6.522;2022-09-25T07:50:07;10.57;;;3.30;;
28762;SDS011;15918;51.270;6.522;2022-09-25T07:52:33;8.65;;;2.45;;
28762;SDS011;15918;51.270;6.522;2022-09-25T07:54:58;11.25;;;2.45;;
28762;SDS011;15918;51.270;6.522;2022-09-25T07:57:24;5.80;;;1.88;;
28762;SDS011;15918;51.270;6.522;2022-09-25T07:59:49;10.35;;;2.40;;
28762;SDS011;15918;51.270;6.522;2022-09-25T08:02:15;8.00;;;2.13;;
28762;SDS011;15918;51.270;6.522;2022-09-25T08:04:40;7.35;;;2.08;;
28762;SDS011;15918;51.270;6.522;2022-09-25T08:07:06;8.13;;;2.80;;
28762;SDS011;15918;51.270;6.522;2022-09-25T08:09:32;13.55;;;3.35;;
28762;SDS011;15918;51.270;6.522;2022-09-25T08:11:57;7.40;;;2.30;;
28762;SDS011;15918;51.270;6.522;2022-09-25T08:14:23;7.32;;;2.47;;
28762;SDS011;15918;51.270;6.522;2022-09-25T08:16:49;10.07;;;2.35;;
28762;SDS011;15918;51.270;6.522;2022-09-25T08:19:19;4.90;;;2.05;;
28762;SDS011;15918;51.270;6.522;2022-09-25T08:21:47;12.80;;;2.72;;
28762;SDS011;15918;51.270;6.522;2022-09-25T08:24:13;6.80;;;2.10;;
28762;SDS011;15918;51.270;6.522;2022-09-25T08:26:39;8.82;;;2.28;;
28762;SDS011;15918;51.270;6.522;2022-09-25T08:29:04;10.45;;;2.47;;
28762;SDS011;15918;51.270;6.522;2022-09-25T08:31:32;7.95;;;2.50;;
28762;SDS011;15918;51.270;6.522;2022-09-25T08:33:58;8.13;;;2.60;;
28762;SDS011;15918;51.270;6.522;2022-09-25T08:36:24;10.05;;;2.60;;
28762;SDS011;15918;51.270;6.522;2022-09-25T08:38:50;9.73;;;2.65;;
28762;SDS011;15918;51.270;6.522;2022-09-25T08:49:51;11.20;;;2.55;;
28762;SDS011;15918;51.270;6.522;2022-09-25T08:52:30;10.27;;;2.17;;
28762;SDS011;15918;51.270;6.522;2022-09-25T08:54:56;9.05;;;1.95;;
28762;SDS011;15918;51.270;6.522;2022-09-25T08:57:34;8.32;;;2.25;;
28762;SDS011;15918;51.270;6.522;2022-09-25T09:00:07;5.78;;;1.77;;
28762;SDS011;15918;51.270;6.522;2022-09-25T09:02:45;4.95;;;2.03;;
28762;SDS011;15918;51.270;6.522;2022-09-25T09:05:27;5.93;;;2.10;;
28762;SDS011;15918;51.270;6.522;2022-09-25T09:11:04;7.68;;;2.30;;
28762;SDS011;15918;51.270;6.522;2022-09-25T09:18:38;7.28;;;1.90;;
28762;SDS011;15918;51.270;6.522;2022-09-25T09:26:40;10.48;;;2.15;;
28762;SDS011;15918;51.270;6.522;2022-09-25T09:34:40;7.65;;;2.20;;
28762;SDS011;15918;51.270;6.522;2022-09-25T09:40:04;7.30;;;2.17;;
28762;SDS011;15918;51.270;6.522;2022-09-25T09:48:48;6.78;;;1.83;;
28762;SDS011;15918;51.270;6.522;2022-09-25T09:51:34;9.40;;;2.05;;
28762;SDS011;15918;51.270;6.522;2022-09-25T09:56:39;8.90;;;1.95;;
28762;SDS011;15918;51.270;6.522;2022-09-25T09:59:13;8.85;;;2.08;;
28762;SDS011;15918;51.270;6.522;2022-09-25T10:01:49;8.38;;;1.85;;
28762;SDS011;15918;51.270;6.522;2022-09-25T10:04:34;6.97;;;2.10;;
28762;SDS011;15918;51.270;6.522;2022-09-25T10:07:05;8.85;;;1.90;;
28762;SDS011;15918;51.270;6.522;2022-09-25T10:09:35;5.40;;;1.50;;
28762;SDS011;15918;51.270;6.522;2022-09-25T10:12:11;7.88;;;2.15;;
28762;SDS011;15918;51.270;6.522;2022-09-25T10:14:44;5.57;;;1.67;;
28762;SDS011;15918;51.270;6.522;2022-09-25T10:17:12;7.57;;;1.88;;
28762;SDS011;15918;51.270;6.522;2022-09-25T10:22:15;10.27;;;1.85;;
28762;SDS011;15918;51.270;6.522;2022-09-25T10:32:43;10.88;;;2.05;;
28762;SDS011;15918;51.270;6.522;2022-09-25T10:38:02;7.88;;;1.67;;
28762;SDS011;15918;51.270;6.522;2022-09-25T10:40:33;7.95;;;1.98;;
28762;SDS011;15918;51.270;6.522;2022-09-25T10:45:48;4.93;;;1.50;;
28762;SDS011;15918;51.270;6.522;2022-09-25T10:48:37;7.32;;;1.67;;
28762;SDS011;15918;51.270;6.522;2022-09-25T10:51:22;5.18;;;1.10;;
28762;SDS011;15918;51.270;6.522;2022-09-25T10:53:49;4.28;;;1.38;;
28762;SDS011;15918;51.270;6.522;2022-09-25T10:56:17;8.95;;;1.30;;
28762;SDS011;15918;51.270;6.522;2022-09-25T10:58:53;5.77;;;1.73;;
28762;SDS011;15918;51.270;6.522;2022-09-25T11:01:28;3.22;;;1.30;;
28762;SDS011;15918;51.270;6.522;2022-09-25T11:06:42;8.00;;;1.60;;
28762;SDS011;15918;51.270;6.522;2022-09-25T11:09:16;5.13;;;1.50;;
28762;SDS011;15918;51.270;6.522;2022-09-25T11:11:44;9.52;;;1.77;;
28762;SDS011;15918;51.270;6.522;2022-09-25T11:14:17;4.45;;;1.05;;
28762;SDS011;15918;51.270;6.522;2022-09-25T11:16:51;4.40;;;1.00;;
28762;SDS011;15918;51.270;6.522;2022-09-25T11:27:38;5.20;;;1.15;;
28762;SDS011;15918;51.270;6.522;2022-09-25T11:30:21;6.30;;;1.75;;
28762;SDS011;15918;51.270;6.522;2022-09-25T11:35:44;6.15;;;1.20;;
28762;SDS011;15918;51.270;6.522;2022-09-25T11:41:32;5.20;;;1.60;;
28762;SDS011;15918;51.270;6.522;2022-09-25T11:46:57;2.95;;;1.38;;
28762;SDS011;15918;51.270;6.522;2022-09-25T11:49:29;3.92;;;1.25;;
28762;SDS011;15918;51.270;6.522;2022-09-25T12:03:07;8.73;;;1.40;;
28762;SDS011;15918;51.270;6.522;2022-09-25T12:11:23;7.55;;;1.80;;
28762;SDS011;15918;51.270;6.522;2022-09-25T12:16:52;3.55;;;1.40;;
28762;SDS011;15918;51.270;6.522;2022-09-25T12:24:51;9.75;;;2.90;;
28762;SDS011;15918;51.270;6.522;2022-09-25T12:30:11;6.05;;;2.03;;
28762;SDS011;15918;51.270;6.522;2022-09-25T12:35:31;3.63;;;1.85;;
28762;SDS011;15918;51.270;6.522;2022-09-25T12:46:23;8.02;;;2.20;;
28762;SDS011;15918;51.270;6.522;2022-09-25T12:48:55;3.75;;;1.48;;
28762;SDS011;15918;51.270;6.522;2022-09-25T13:02:25;5.13;;;2.33;;
28762;SDS011;15918;51.270;6.522;2022-09-25T13:10:37;4.90;;;1.67;;
28762;SDS011;15918;51.270;6.522;2022-09-25T13:13:11;3.67;;;1.35;;
28762;SDS011;15918;51.270;6.522;2022-09-25T13:15:44;3.85;;;1.30;;
28762;SDS011;15918;51.270;6.522;2022-09-25T13:18:20;3.50;;;1.30;;
28762;SDS011;15918;51.270;6.522;2022-09-25T13:20:56;3.45;;;1.27;;
28762;SDS011;15918;51.270;6.522;2022-09-25T13:23:35;4.65;;;1.10;;
28762;SDS011;15918;51.270;6.522;2022-09-25T13:26:09;5.15;;;1.30;;
28762;SDS011;15918;51.270;6.522;2022-09-25T13:28:56;5.50;;;1.23;;
28762;SDS011;15918;51.270;6.522;2022-09-25T13:31:27;3.67;;;1.17;;
28762;SDS011;15918;51.270;6.522;2022-09-25T13:36:54;3.75;;;0.90;;
28762;SDS011;15918;51.270;6.522;2022-09-25T13:42:28;4.55;;;1.20;;
28762;SDS011;15918;51.270;6.522;2022-09-25T13:45:46;4.93;;;1.13;;
28762;SDS011;15918;51.270;6.522;2022-09-25T13:58:19;3.83;;;1.27;;
28762;SDS011;15918;51.270;6.522;2022-09-25T14:03:27;3.45;;;1.13;;
28762;SDS011;15918;51.270;6.522;2022-09-25T14:08:52;5.30;;;1.63;;
28762;SDS011;15918;51.270;6.522;2022-09-25T14:11:26;5.95;;;1.60;;
28762;SDS011;15918;51.270;6.522;2022-09-25T14:13:55;4.72;;;1.13;;
28762;SDS011;15918;51.270;6.522;2022-09-25T14:19:29;5.05;;;1.10;;
28762;SDS011;15918;51.270;6.522;2022-09-25T14:21:59;4.53;;;1.35;;
28762;SDS011;15918;51.270;6.522;2022-09-25T14:24:28;2.42;;;0.98;;
28762;SDS011;15918;51.270;6.522;2022-09-25T14:26:56;4.00;;;1.40;;
28762;SDS011;15918;51.270;6.522;2022-09-25T14:29:25;4.30;;;1.30;;
28762;SDS011;15918;51.270;6.522;2022-09-25T14:34:49;4.43;;;1.25;;
28762;SDS011;15918;51.270;6.522;2022-09-25T14:37:32;2.95;;;1.08;;
28762;SDS011;15918;51.270;6.522;2022-09-25T14:47:58;2.50;;;1.30;;
28762;SDS011;15918;51.270;6.522;2022-09-25T14:50:28;2.92;;;1.40;;
28762;SDS011;15918;51.270;6.522;2022-09-25T14:53:04;6.15;;;1.23;;
28762;SDS011;15918;51.270;6.522;2022-09-25T14:55:34;4.13;;;1.27;;
28762;SDS011;15918;51.270;6.522;2022-09-25T14:58:07;2.42;;;1.30;;
28762;SDS011;15918;51.270;6.522;2022-09-25T15:00:41;4.60;;;1.52;;
28762;SDS011;15918;51.270;6.522;2022-09-25T15:03:10;3.60;;;1.02;;
28762;SDS011;15918;51.270;6.522;2022-09-25T15:05:38;3.45;;;1.23;;
28762;SDS011;15918;51.270;6.522;2022-09-25T15:08:19;2.38;;;1.00;;
28762;SDS011;15918;51.270;6.522;2022-09-25T15:10:48;4.30;;;1.20;;
28762;SDS011;15918;51.270;6.522;2022-09-25T15:13:24;1.77;;;0.95;;
28762;SDS011;15918;51.270;6.522;2022-09-25T15:15:54;3.03;;;1.20;;
28762;SDS011;15918;51.270;6.522;2022-09-25T15:18:41;3.42;;;1.02;;
28762;SDS011;15918;51.270;6.522;2022-09-25T15:21:29;4.50;;;1.17;;
28762;SDS011;15918;51.270;6.522;2022-09-25T15:23:56;3.83;;;1.17;;
28762;SDS011;15918;51.270;6.522;2022-09-25T15:26:28;7.20;;;1.20;;
28762;SDS011;15918;51.270;6.522;2022-09-25T15:28:56;2.75;;;0.80;;
28762;SDS011;15918;51.270;6.522;2022-09-25T15:31:22;3.00;;;0.90;;
28762;SDS011;15918;51.270;6.522;2022-09-25T15:34:01;6.45;;;1.85;;
28762;SDS011;15918;51.270;6.522;2022-09-25T15:36:37;2.25;;;1.10;;
28762;SDS011;15918;51.270;6.522;2022-09-25T15:39:08;3.78;;;0.93;;
28762;SDS011;15918;51.270;6.522;2022-09-25T15:41:41;1.73;;;1.08;;
28762;SDS011;15918;51.270;6.522;2022-09-25T15:44:12;1.70;;;0.70;;
28762;SDS011;15918;51.270;6.522;2022-09-25T15:46:46;5.20;;;0.82;;
28762;SDS011;15918;51.270;6.522;2022-09-25T15:49:18;1.85;;;0.88;;
28762;SDS011;15918;51.270;6.522;2022-09-25T15:51:51;3.03;;;1.17;;
28762;SDS011;15918;51.270;6.522;2022-09-25T15:54:31;2.88;;;0.90;;
28762;SDS011;15918;51.270;6.522;2022-09-25T15:56:58;1.73;;;0.85;;
28762;SDS011;15918;51.270;6.522;2022-09-25T15:59:42;2.97;;;1.13;;
28762;SDS011;15918;51.270;6.522;2022-09-25T16:02:29;4.47;;;1.38;;
28762;SDS011;15918;51.270;6.522;2022-09-25T16:05:27;1.90;;;1.20;;
28762;SDS011;15918;51.270;6.522;2022-09-25T16:10:41;3.10;;;1.23;;
28762;SDS011;15918;51.270;6.522;2022-09-25T16:13:20;6.53;;;1.90;;
28762;SDS011;15918;51.270;6.522;2022-09-25T16:15:52;3.92;;;1.60;;
28762;SDS011;15918;51.270;6.522;2022-09-25T16:20:56;2.10;;;1.40;;
28762;SDS011;15918;51.270;6.522;2022-09-25T16:23:42;3.17;;;1.50;;
28762;SDS011;15918;51.270;6.522;2022-09-25T16:26:15;3.17;;;1.10;;
28762;SDS011;15918;51.270;6.522;2022-09-25T16:29:07;1.20;;;1.10;;
28762;SDS011;15918;51.270;6.522;2022-09-25T16:31:42;5.85;;;0.90;;
28762;SDS011;15918;51.270;6.522;2022-09-25T16:34:47;2.75;;;1.00;;
28762;SDS011;15918;51.270;6.522;2022-09-25T16:37:02;2.00;;;1.30;;
28762;SDS011;15918;51.270;6.522;2022-09-25T16:44:46;2.17;;;1.08;;
28762;SDS011;15918;51.270;6.522;2022-09-25T16:47:14;4.10;;;1.13;;
28762;SDS011;15918;51.270;6.522;2022-09-25T16:49:42;1.75;;;1.02;;
28762;SDS011;15918;51.270;6.522;2022-09-25T16:52:11;1.95;;;0.98;;
28762;SDS011;15918;51.270;6.522;2022-09-25T16:54:48;2.42;;;1.17;;
28762;SDS011;15918;51.270;6.522;2022-09-25T16:57:17;1.88;;;1.10;;
28762;SDS011;15918;51.270;6.522;2022-09-25T16:59:44;2.20;;;1.52;;
28762;SDS011;15918;51.270;6.522;2022-09-25T17:02:25;4.72;;;1.67;;
28762;SDS011;15918;51.270;6.522;2022-09-25T17:04:57;4.03;;;2.42;;
28762;SDS011;15918;51.270;6.522;2022-09-25T17:07:24;3.03;;;1.90;;
28762;SDS011;15918;51.270;6.522;2022-09-25T17:09:50;4.60;;;1.95;;
28762;SDS011;15918;51.270;6.522;2022-09-25T17:12:20;3.05;;;1.83;;
28762;SDS011;15918;51.270;6.522;2022-09-25T17:14:47;5.18;;;1.83;;
28762;SDS011;15918;51.270;6.522;2022-09-25T17:17:14;2.65;;;1.67;;
28762;SDS011;15918;51.270;6.522;2022-09-25T17:19:42;2.00;;;1.20;;
28762;SDS011;15918;51.270;6.522;2022-09-25T17:22:08;3.22;;;1.50;;
28762;SDS011;15918;51.270;6.522;2022-09-25T17:24:34;3.13;;;1.42;;
28762;SDS011;15918;51.270;6.522;2022-09-25T17:27:00;1.88;;;1.50;;
28762;SDS011;15918;51.270;6.522;2022-09-25T17:29:26;2.55;;;1.20;;
28762;SDS011;15918;51.270;6.522;2022-09-25T17:31:52;2.80;;;1.52;;
28762;SDS011;15918;51.270;6.522;2022-09-25T17:34:21;2.03;;;1.52;;
28762;SDS011;15918;51.270;6.522;2022-09-25T17:36:52;2.13;;;1.58;;
28762;SDS011;15918;51.270;6.522;2022-09-25T17:39:19;1.80;;;1.40;;
28762;SDS011;15918;51.270;6.522;2022-09-25T17:41:45;2.28;;;1.23;;
28762;SDS011;15918;51.270;6.522;2022-09-25T17:44:14;2.83;;;1.10;;
28762;SDS011;15918;51.270;6.522;2022-09-25T17:46:42;1.75;;;1.30;;
28762;SDS011;15918;51.270;6.522;2022-09-25T17:49:08;2.30;;;1.23;;
28762;SDS011;15918;51.270;6.522;2022-09-25T17:51:34;3.80;;;1.58;;
28762;SDS011;15918;51.270;6.522;2022-09-25T17:54:00;1.88;;;1.67;;
28762;SDS011;15918;51.270;6.522;2022-09-25T17:56:26;3.30;;;1.67;;
28762;SDS011;15918;51.270;6.522;2022-09-25T17:58:53;5.35;;;1.50;;
28762;SDS011;15918;51.270;6.522;2022-09-25T18:01:24;2.45;;;1.52;;
28762;SDS011;15918;51.270;6.522;2022-09-25T18:03:52;3.88;;;1.60;;
28762;SDS011;15918;51.270;6.522;2022-09-25T18:06:19;5.70;;;2.08;;
28762;SDS011;15918;51.270;6.522;2022-09-25T18:08:46;2.55;;;1.10;;
28762;SDS011;15918;51.270;6.522;2022-09-25T18:11:13;3.15;;;1.98;;
28762;SDS011;15918;51.270;6.522;2022-09-25T18:13:40;3.83;;;1.35;;
28762;SDS011;15918;51.270;6.522;2022-09-25T18:16:06;1.88;;;1.13;;
28762;SDS011;15918;51.270;6.522;2022-09-25T18:18:47;1.50;;;1.00;;
28762;SDS011;15918;51.270;6.522;2022-09-25T18:21:31;2.53;;;1.08;;
28762;SDS011;15918;51.270;6.522;2022-09-25T18:24:15;4.28;;;1.25;;